Portada
METAR-TAF:

METAR-TAF

Aeropuertos :

Estocolmo-Arlanda, Suecia

Aeropuerto de Estocolmo-Arlanda

latitud: 59-39N, longitud: 017-57E, altitud: 38 m

Observación

El informe se hizo hace 30 minutos, a las 08:50 UTC
Viento 7 kt del noroeste, variando entre oeste y norte-noroeste
Temperatura 14°C
Humedad 55%
Presión 1028 hPa
Visibilidad 10 km o más
sin nubes por debajo de 1500 m y sin presencia de cumulonimbus.

METAR: ESSA 190850Z 31007KT 260V340 CAVOK 14/05 Q1028 NOSIG

Hora: 11:20 (09:20 UTC)

Pronóstico

El informe se hizo hace 3 horas y 50 minutos, a las 05:30 UTC
Pronóstico válido del 19 a las 06 UTC al 20 a las 06 UTC
Viento 3 kt del oeste
Visibilidad 10 km o más
sin nubes por debajo de 1500 m y sin presencia de cumulonimbus.
Probabilidad 40%
del 19 a las 22 UTC al 20 a las 05 UTC
Visibilidad: 4000 m
neblina

TAF: ESSA 190530Z 1906/2006 28003KT CAVOK PROB40 1922/2005 4000 BR

Observaciones y pronósticos meteorológicos de más de 4000 aeropuertos (mensajes METAR y TAF).

Los puntos amarillos y rojos representan las estaciones disponibles.

Ponga el ratón en el punto deseado para ver el nombre de la estación.

Haga clic para ver las observaciones y los pronósticos meteorológicos.

Para cambiar el mapa : haga clic en los botones verdes con una cruz de color negro para hacer un zoom, en el botón verde con un guión para alejar o en las flechas verdes para mapas adyacentes.


METAR-TAF: